Hoppmann, Mario; Tippenhauer, Sandra; Schewe, Ingo (2026): Continuous thermosalinograph oceanography along RV HEINCKE cruise track HE668 [dataset]. Alfred Wegener Institute, Helmholtz Centre for Polar and Marine Research, Bremerhaven, PANGAEA, https://doi.pangaea.de/10.1594/PANGAEA.993572 (DOI registration in progress)
Always quote citation above when using data! You can download the citation in several formats below.
Published: 2026-05-05
Abstract:
Raw data acquired by a thermosalinograph (SBE21, Sea-Bird GmbH) in combination with an external temperature sensor (SBE38, Sea-Bird GmbH) aboard RV Heincke were processed to generate a calibrated, quality-controlled dataset of seawater temperature and salinity. The raw sensor data were initially retrieved from the DSHIP database (https://dship.awi.de) at a temporal resolution of 1 second and converted into temperature and conductivity using the pre-deployment calibration coefficients. The thermosalinograph system aboard RV Heincke is typically replaced after each expedition season, with a recalibration conducted at the manufacturer's facilities after each exchange. After post-cruise recalibration of the instruments, additional correction factors were calculated and applied to account for sensor drift. Salinity was calculated from internally measured temperatures and conductivities following the Practical Salinity Scale (PSS-78). The processed dataset is provided as 1-minute averages of salinity and seawater external temperature, synchronized with the positional data from the expedition's master track. Quality flags were assigned in accordance with the SeaDataNet Data Quality Control Procedures (May 2010).
Related to:
Schewe, Ingo (2025): Master tracks in different resolutions of HEINCKE cruise HE668, Bremerhaven - Bremerhaven, 2025-09-25 - 2025-09-25 [dataset]. Alfred Wegener Institute, Helmholtz Centre for Polar and Marine Research, Bremerhaven, PANGAEA, https://doi.org/10.1594/PANGAEA.987127
Data processing report:
Hoppmann, Mario; Tippenhauer, Sandra (2026): Continuous thermosalinograph oceanography along RV HEINCKE cruise track HE668 - Data Processing Report. FIELAX - Gesellschaft für wissenschaftliche Datenverarbeitung mbH, HE668_TSG_nav.pdf
Project(s):
DAM Underway Research Data (DAM_Underway)
Physical Oceanography @ AWI (AWI_PhyOce)
Coverage:
Median Latitude: 54.074938 * Median Longitude: 7.939233 * South-bound Latitude: 53.840232 * West-bound Longitude: 7.798492 * North-bound Latitude: 54.242841 * East-bound Longitude: 8.118676
Date/Time Start: 2025-09-25T08:36:00 * Date/Time End: 2025-09-25T14:45:00
Minimum DEPTH, water: 2.0 m * Maximum DEPTH, water: 2.0 m
Event(s):
HE668_0_Underway-5 * Latitude Start: 53.904498 * Longitude Start: 8.030421 * Latitude End: 53.915639 * Longitude End: 7.999531 * Date/Time Start: 2025-09-25T09:08:47 * Date/Time End: 2025-09-25T14:51:24 * Elevation Start: -14.0 m * Elevation End: -13.0 m * O2A Registry URI: https://registry.o2a-data.de/items/8558 * Campaign: HE668 (Verwaltungsausfahrt) * Basis: Heincke * Method/Device: Thermosalinograph (TSG) * Comment: interrupted during DEHGL
Parameter(s):
License:
Creative Commons Attribution 4.0 International (CC-BY-4.0)
Status:
Curation Level: Enhanced curation (CurationLevelC) * Processing Level: PANGAEA data processing level 2 (ProcLevel2)
Size:
1908 data points
Data
| 1 Date/Time | 2 Latitude | 3 Longitude | 4 Depth water [m] | 5 Temp [°C] | 6 QF water temp | 7 Cond [mS/cm] | 8 T intern [°C] | 9 Sal | 10 QF sal |
|---|---|---|---|---|---|---|---|---|---|
| 2025-09-25T08:36:00 | 53.840232 | 8.117493 | 2.0 | 15.502 | 2 | 38.920 | 15.734 | 30.797 | 2 |
| 2025-09-25T08:37:00 | 53.843213 | 8.117773 | 2.0 | 15.455 | 2 | 38.963 | 15.723 | 30.844 | 2 |
| 2025-09-25T08:38:00 | 53.846186 | 8.117977 | 2.0 | 15.492 | 2 | 38.973 | 15.657 | 30.904 | 2 |
| 2025-09-25T08:39:00 | 53.849154 | 8.118194 | 2.0 | 15.555 | 2 | 39.157 | 15.715 | 31.021 | 2 |
| 2025-09-25T08:40:00 | 53.852104 | 8.118402 | 2.0 | 15.619 | 2 | 39.257 | 15.755 | 31.078 | 2 |
| 2025-09-25T08:41:00 | 53.855019 | 8.118676 | 2.0 | 15.633 | 2 | 39.325 | 15.805 | 31.099 | 2 |
| 2025-09-25T08:42:00 | 53.857883 | 8.118573 | 2.0 | 15.672 | 2 | 39.356 | 15.820 | 31.114 | 2 |
| 2025-09-25T08:43:00 | 53.860751 | 8.118265 | 2.0 | 15.686 | 2 | 39.458 | 15.859 | 31.173 | 2 |
| 2025-09-25T08:44:00 | 53.863578 | 8.117589 | 2.0 | 15.698 | 2 | 39.517 | 15.871 | 31.216 | 2 |
| 2025-09-25T08:45:00 | 53.866331 | 8.116398 | 2.0 | 15.725 | 2 | 39.537 | 15.884 | 31.223 | 2 |
| 2025-09-25T08:46:00 | 53.868991 | 8.114734 | 2.0 | 15.731 | 2 | 39.566 | 15.902 | 31.234 | 2 |
| 2025-09-25T08:47:00 | 53.871627 | 8.113062 | 2.0 | 15.766 | 2 | 39.593 | 15.919 | 31.245 | 2 |
| 2025-09-25T08:48:00 | 53.874235 | 8.111395 | 2.0 | 15.789 | 2 | 39.625 | 15.943 | 31.254 | 2 |
| 2025-09-25T08:49:00 | 53.876833 | 8.109679 | 2.0 | 15.813 | 2 | 39.649 | 15.966 | 31.257 | 2 |
| 2025-09-25T08:50:00 | 53.879342 | 8.107655 | 2.0 | 15.828 | 2 | 39.689 | 15.994 | 31.270 | 2 |
| 2025-09-25T08:51:00 | 53.881745 | 8.105253 | 2.0 | 15.832 | 2 | 39.708 | 16.004 | 31.279 | 2 |
| 2025-09-25T08:52:00 | 53.883473 | 8.101671 | 2.0 | 15.816 | 2 | 39.702 | 16.003 | 31.274 | 2 |
| 2025-09-25T08:53:00 | 53.884757 | 8.097427 | 2.0 | 15.787 | 2 | 39.668 | 15.988 | 31.256 | 2 |
| 2025-09-25T08:54:00 | 53.885876 | 8.092992 | 2.0 | 15.770 | 2 | 39.634 | 15.961 | 31.248 | 2 |
| 2025-09-25T08:55:00 | 53.887071 | 8.088632 | 2.0 | 15.782 | 2 | 39.643 | 15.949 | 31.265 | 2 |
| 2025-09-25T08:56:00 | 53.888263 | 8.084290 | 2.0 | 15.827 | 2 | 39.707 | 15.967 | 31.307 | 2 |
| 2025-09-25T08:57:00 | 53.889422 | 8.079921 | 2.0 | 15.872 | 2 | 39.808 | 16.006 | 31.365 | 2 |
| 2025-09-25T08:58:00 | 53.890575 | 8.075529 | 2.0 | 15.905 | 2 | 39.911 | 16.049 | 31.421 | 2 |
| 2025-09-25T08:59:00 | 53.891717 | 8.071106 | 2.0 | 15.948 | 2 | 39.998 | 16.082 | 31.471 | 2 |
| 2025-09-25T09:00:00 | 53.892993 | 8.066849 | 2.0 | 15.993 | 2 | 40.109 | 16.127 | 31.533 | 2 |
| 2025-09-25T09:01:00 | 53.894295 | 8.062684 | 2.0 | 16.001 | 2 | 40.183 | 16.161 | 31.571 | 2 |
| 2025-09-25T09:02:00 | 53.895614 | 8.058587 | 2.0 | 15.996 | 2 | 40.192 | 16.169 | 31.572 | 2 |
| 2025-09-25T09:03:00 | 53.896905 | 8.054449 | 2.0 | 15.994 | 2 | 40.184 | 16.167 | 31.567 | 2 |
| 2025-09-25T09:04:00 | 53.898186 | 8.050303 | 2.0 | 15.988 | 2 | 40.178 | 16.164 | 31.564 | 2 |
| 2025-09-25T09:05:00 | 53.899486 | 8.046192 | 2.0 | 15.979 | 2 | 40.168 | 16.158 | 31.560 | 2 |
| 2025-09-25T09:06:00 | 53.900790 | 8.042057 | 2.0 | 15.967 | 2 | 40.158 | 16.150 | 31.558 | 2 |
| 2025-09-25T09:07:00 | 53.902113 | 8.037962 | 2.0 | 15.955 | 2 | 40.141 | 16.137 | 31.553 | 2 |
| 2025-09-25T09:08:00 | 53.903393 | 8.033761 | 2.0 | 15.949 | 2 | 40.125 | 16.126 | 31.548 | 2 |
| 2025-09-25T09:09:00 | 53.904741 | 8.029624 | 2.0 | 15.949 | 2 | 40.116 | 16.121 | 31.544 | 2 |
| 2025-09-25T09:10:00 | 53.906129 | 8.025514 | 2.0 | 15.961 | 2 | 40.117 | 16.122 | 31.544 | 2 |
| 2025-09-25T09:11:00 | 53.907705 | 8.021616 | 2.0 | 16.012 | 2 | 40.148 | 16.140 | 31.557 | 2 |
| 2025-09-25T09:12:00 | 53.909297 | 8.017716 | 2.0 | 16.137 | 2 | 40.266 | 16.196 | 31.616 | 2 |
| 2025-09-25T09:13:00 | 53.910897 | 8.013820 | 2.0 | 16.325 | 2 | 40.324 | 16.332 | 31.559 | 2 |
| 2025-09-25T09:14:00 | 53.912502 | 8.009916 | 2.0 | 16.563 | 2 | 40.738 | 16.512 | 31.777 | 2 |
| 2025-09-25T09:15:00 | 53.914111 | 8.006016 | 2.0 | 16.792 | 2 | 41.074 | 16.764 | 31.868 | 2 |
| 2025-09-25T09:16:00 | 53.915708 | 8.002073 | 2.0 | 16.900 | 2 | 41.514 | 16.962 | 32.091 | 2 |
| 2025-09-25T09:17:00 | 53.917481 | 7.998395 | 2.0 | 16.931 | 2 | 41.600 | 17.062 | 32.085 | 2 |
| 2025-09-25T09:18:00 | 53.919228 | 7.994684 | 2.0 | 16.935 | 2 | 41.683 | 17.089 | 32.135 | 2 |
| 2025-09-25T09:19:00 | 53.920984 | 7.991046 | 2.0 | 16.951 | 2 | 41.685 | 17.099 | 32.129 | 2 |
| 2025-09-25T09:20:00 | 53.922770 | 7.987458 | 2.0 | 16.973 | 2 | 41.576 | 17.117 | 32.021 | 2 |
| 2025-09-25T09:21:00 | 53.924707 | 7.984122 | 2.0 | 16.997 | 2 | 41.480 | 17.139 | 31.921 | 2 |
| 2025-09-25T09:22:00 | 53.926773 | 7.981019 | 2.0 | 17.023 | 2 | 41.400 | 17.163 | 31.833 | 2 |
| 2025-09-25T09:23:00 | 53.928934 | 7.978039 | 2.0 | 17.049 | 2 | 41.505 | 17.191 | 31.901 | 2 |
| 2025-09-25T09:24:00 | 53.931205 | 7.975283 | 2.0 | 17.077 | 2 | 41.852 | 17.217 | 32.178 | 2 |
| 2025-09-25T09:25:00 | 53.933470 | 7.972446 | 2.0 | 17.117 | 2 | 41.955 | 17.245 | 32.244 | 2 |
| 2025-09-25T09:26:00 | 53.935771 | 7.969658 | 2.0 | 17.159 | 2 | 41.983 | 17.287 | 32.235 | 2 |
| 2025-09-25T09:27:00 | 53.938066 | 7.966843 | 2.0 | 17.160 | 2 | 41.951 | 17.319 | 32.182 | 2 |
| 2025-09-25T09:28:00 | 53.940436 | 7.964127 | 2.0 | 17.193 | 2 | 41.783 | 17.329 | 32.030 | 2 |
| 2025-09-25T09:29:00 | 53.943215 | 7.963005 | 2.0 | 17.206 | 2 | 41.793 | 17.358 | 32.016 | 2 |
| 2025-09-25T09:30:00 | 53.946078 | 7.962184 | 2.0 | 17.207 | 2 | 41.794 | 17.370 | 32.007 | 2 |
| 2025-09-25T09:31:00 | 53.948973 | 7.961369 | 2.0 | 17.203 | 2 | 42.019 | 17.372 | 32.198 | 2 |
| 2025-09-25T09:32:00 | 53.951876 | 7.960585 | 2.0 | 17.190 | 2 | 42.150 | 17.367 | 32.314 | 2 |
| 2025-09-25T09:33:00 | 53.954787 | 7.959781 | 2.0 | 17.174 | 2 | 42.001 | 17.353 | 32.198 | 2 |
| 2025-09-25T09:34:00 | 53.957691 | 7.959019 | 2.0 | 17.161 | 2 | 42.081 | 17.338 | 32.278 | 2 |
| 2025-09-25T09:35:00 | 53.960598 | 7.958268 | 2.0 | 17.155 | 2 | 41.932 | 17.326 | 32.160 | 2 |
| 2025-09-25T09:36:00 | 53.963522 | 7.957488 | 2.0 | 17.152 | 2 | 41.959 | 17.321 | 32.187 | 2 |
| 2025-09-25T09:37:00 | 53.966455 | 7.956692 | 2.0 | 17.151 | 2 | 42.078 | 17.319 | 32.291 | 2 |
| 2025-09-25T09:38:00 | 53.969371 | 7.955906 | 2.0 | 17.152 | 2 | 41.923 | 17.317 | 32.159 | 2 |
| 2025-09-25T09:39:00 | 53.972281 | 7.955151 | 2.0 | 17.151 | 2 | 42.069 | 17.318 | 32.284 | 2 |
| 2025-09-25T09:40:00 | 53.975195 | 7.954378 | 2.0 | 17.156 | 2 | 41.970 | 17.318 | 32.199 | 2 |
| 2025-09-25T09:41:00 | 53.978124 | 7.953540 | 2.0 | 17.157 | 2 | 41.973 | 17.322 | 32.198 | 2 |
| 2025-09-25T09:42:00 | 53.981059 | 7.952738 | 2.0 | 17.155 | 2 | 41.899 | 17.322 | 32.135 | 2 |
| 2025-09-25T09:43:00 | 53.983975 | 7.951801 | 2.0 | 17.164 | 2 | 41.884 | 17.322 | 32.122 | 2 |
| 2025-09-25T09:44:00 | 53.986889 | 7.950945 | 2.0 | 17.171 | 2 | 41.925 | 17.333 | 32.148 | 2 |
| 2025-09-25T09:45:00 | 53.989803 | 7.950066 | 2.0 | 17.170 | 2 | 41.919 | 17.335 | 32.142 | 2 |
| 2025-09-25T09:46:00 | 53.992720 | 7.949179 | 2.0 | 17.167 | 2 | 41.997 | 17.335 | 32.209 | 2 |
| 2025-09-25T09:47:00 | 53.995635 | 7.948308 | 2.0 | 17.171 | 2 | 41.941 | 17.334 | 32.161 | 2 |
| 2025-09-25T09:48:00 | 53.998548 | 7.947444 | 2.0 | 17.161 | 2 | 41.985 | 17.335 | 32.198 | 2 |
| 2025-09-25T09:49:00 | 54.001456 | 7.946543 | 2.0 | 17.153 | 2 | 41.969 | 17.324 | 32.193 | 2 |
| 2025-09-25T09:50:00 | 54.004375 | 7.945663 | 2.0 | 17.163 | 2 | 42.012 | 17.322 | 32.232 | 2 |
| 2025-09-25T09:51:00 | 54.007285 | 7.944798 | 2.0 | 17.165 | 2 | 42.016 | 17.328 | 32.230 | 2 |
| 2025-09-25T09:52:00 | 54.010196 | 7.943877 | 2.0 | 17.202 | 2 | 42.040 | 17.331 | 32.249 | 2 |
| 2025-09-25T09:53:00 | 54.013092 | 7.943080 | 2.0 | 17.235 | 2 | 42.114 | 17.373 | 32.278 | 2 |
| 2025-09-25T09:54:00 | 54.015991 | 7.942192 | 2.0 | 17.249 | 2 | 42.196 | 17.398 | 32.329 | 2 |
| 2025-09-25T09:55:00 | 54.018883 | 7.941351 | 2.0 | 17.246 | 2 | 42.231 | 17.411 | 32.348 | 2 |
| 2025-09-25T09:56:00 | 54.021776 | 7.940458 | 2.0 | 17.255 | 2 | 42.242 | 17.410 | 32.358 | 2 |
| 2025-09-25T09:57:00 | 54.024658 | 7.939601 | 2.0 | 17.263 | 2 | 42.253 | 17.420 | 32.360 | 2 |
| 2025-09-25T09:58:00 | 54.027519 | 7.938762 | 2.0 | 17.258 | 2 | 42.274 | 17.423 | 32.375 | 2 |
| 2025-09-25T09:59:00 | 54.030373 | 7.937924 | 2.0 | 17.269 | 2 | 42.282 | 17.424 | 32.381 | 2 |
| 2025-09-25T10:00:00 | 54.033229 | 7.937088 | 2.0 | 17.268 | 2 | 42.311 | 17.431 | 32.401 | 2 |
| 2025-09-25T10:01:00 | 54.036084 | 7.936225 | 2.0 | 17.264 | 2 | 42.339 | 17.431 | 32.425 | 2 |
| 2025-09-25T10:02:00 | 54.038945 | 7.935304 | 2.0 | 17.259 | 2 | 42.350 | 17.426 | 32.438 | 2 |
| 2025-09-25T10:03:00 | 54.041805 | 7.934439 | 2.0 | 17.266 | 2 | 42.338 | 17.426 | 32.428 | 2 |
| 2025-09-25T10:04:00 | 54.044683 | 7.933580 | 2.0 | 17.266 | 2 | 42.390 | 17.428 | 32.471 | 2 |
| 2025-09-25T10:05:00 | 54.047582 | 7.932680 | 2.0 | 17.272 | 2 | 42.396 | 17.431 | 32.473 | 2 |
| 2025-09-25T10:06:00 | 54.050471 | 7.931848 | 2.0 | 17.270 | 2 | 42.386 | 17.435 | 32.462 | 2 |
| 2025-09-25T10:07:00 | 54.053346 | 7.930989 | 2.0 | 17.268 | 2 | 42.396 | 17.432 | 32.473 | 2 |
| 2025-09-25T10:08:00 | 54.056235 | 7.930093 | 2.0 | 17.269 | 2 | 42.411 | 17.431 | 32.486 | 2 |
| 2025-09-25T10:09:00 | 54.059142 | 7.929203 | 2.0 | 17.272 | 2 | 42.418 | 17.433 | 32.491 | 2 |
| 2025-09-25T10:10:00 | 54.062068 | 7.928403 | 2.0 | 17.285 | 2 | 42.428 | 17.439 | 32.494 | 2 |
| 2025-09-25T10:11:00 | 54.064984 | 7.927456 | 2.0 | 17.297 | 2 | 42.449 | 17.449 | 32.504 | 2 |
| 2025-09-25T10:12:00 | 54.067905 | 7.926588 | 2.0 | 17.306 | 2 | 42.475 | 17.462 | 32.516 | 2 |
| 2025-09-25T10:13:00 | 54.070821 | 7.925745 | 2.0 | 17.308 | 2 | 42.484 | 17.466 | 32.521 | 2 |
| 2025-09-25T10:14:00 | 54.073706 | 7.924892 | 2.0 | 17.310 | 2 | 42.498 | 17.471 | 32.528 | 2 |
| 2025-09-25T10:15:00 | 54.076617 | 7.924001 | 2.0 | 17.310 | 2 | 42.503 | 17.471 | 32.533 | 2 |
| 2025-09-25T10:16:00 | 54.079543 | 7.923166 | 2.0 | 17.317 | 2 | 42.511 | 17.474 | 32.537 | 2 |
| 2025-09-25T10:17:00 | 54.082496 | 7.922266 | 2.0 | 17.320 | 2 | 42.523 | 17.480 | 32.543 | 2 |
| 2025-09-25T10:18:00 | 54.085471 | 7.921413 | 2.0 | 17.322 | 2 | 42.532 | 17.483 | 32.548 | 2 |
| 2025-09-25T10:19:00 | 54.088411 | 7.920567 | 2.0 | 17.321 | 2 | 42.537 | 17.483 | 32.552 | 2 |
| 2025-09-25T10:20:00 | 54.091309 | 7.919814 | 2.0 | 17.319 | 2 | 42.539 | 17.482 | 32.555 | 2 |
| 2025-09-25T10:21:00 | 54.094240 | 7.919021 | 2.0 | 17.316 | 2 | 42.539 | 17.481 | 32.555 | 2 |
| 2025-09-25T10:22:00 | 54.097228 | 7.918216 | 2.0 | 17.312 | 2 | 42.538 | 17.479 | 32.556 | 2 |
| 2025-09-25T10:23:00 | 54.100214 | 7.917470 | 2.0 | 17.307 | 2 | 42.536 | 17.475 | 32.558 | 2 |
| 2025-09-25T10:24:00 | 54.103170 | 7.916631 | 2.0 | 17.301 | 2 | 42.531 | 17.469 | 32.558 | 2 |
| 2025-09-25T10:25:00 | 54.106133 | 7.915884 | 2.0 | 17.299 | 2 | 42.527 | 17.465 | 32.558 | 2 |
| 2025-09-25T10:26:00 | 54.109094 | 7.915106 | 2.0 | 17.297 | 2 | 42.528 | 17.461 | 32.562 | 2 |
| 2025-09-25T10:27:00 | 54.112038 | 7.914337 | 2.0 | 17.294 | 2 | 42.528 | 17.458 | 32.565 | 2 |
| 2025-09-25T10:28:00 | 54.115018 | 7.913524 | 2.0 | 17.299 | 2 | 42.533 | 17.459 | 32.568 | 2 |
| 2025-09-25T10:29:00 | 54.118007 | 7.912664 | 2.0 | 17.308 | 2 | 42.549 | 17.464 | 32.578 | 2 |
| 2025-09-25T10:30:00 | 54.121014 | 7.911863 | 2.0 | 17.319 | 2 | 42.572 | 17.473 | 32.590 | 2 |
| 2025-09-25T10:31:00 | 54.124010 | 7.911119 | 2.0 | 17.340 | 2 | 42.608 | 17.485 | 32.611 | 2 |
| 2025-09-25T10:32:00 | 54.127001 | 7.910299 | 2.0 | 17.359 | 2 | 42.661 | 17.505 | 32.640 | 2 |
| 2025-09-25T10:33:00 | 54.130004 | 7.909503 | 2.0 | 17.371 | 2 | 42.708 | 17.524 | 32.665 | 2 |
| 2025-09-25T10:34:00 | 54.133023 | 7.908691 | 2.0 | 17.379 | 2 | 42.742 | 17.535 | 32.686 | 2 |
| 2025-09-25T10:35:00 | 54.135907 | 7.908064 | 2.0 | 17.371 | 2 | 42.777 | 17.540 | 32.711 | 2 |
| 2025-09-25T10:36:00 | 54.138378 | 7.907452 | 2.0 | 17.291 | 2 | 42.781 | 17.528 | 32.725 | 2 |
| 2025-09-25T10:37:00 | 54.140256 | 7.906659 | 2.0 | 17.200 | 2 | 42.696 | 17.435 | 32.727 | 2 |
| 2025-09-25T10:38:00 | 54.141430 | 7.905286 | 2.0 | 17.186 | 2 | 42.606 | 17.364 | 32.707 | 2 |
| 2025-09-25T10:39:00 | 54.141829 | 7.903672 | 2.0 | 17.177 | 2 | 42.580 | 17.347 | 32.699 | 2 |
| 2025-09-25T10:40:00 | 54.142161 | 7.902032 | 2.0 | 17.168 | 2 | 42.569 | 17.339 | 32.696 | 2 |
| 2025-09-25T10:41:00 | 54.142525 | 7.900450 | 2.0 | 17.164 | 2 | 42.558 | 17.330 | 32.693 | 2 |
| 2025-09-25T10:42:00 | 54.142883 | 7.898990 | 2.0 | 17.156 | 2 | 42.552 | 17.325 | 32.692 | 2 |
| 2025-09-25T10:43:00 | 54.143169 | 7.897845 | 2.0 | 17.147 | 2 | 42.543 | 17.318 | 32.690 | 2 |
| 2025-09-25T10:44:00 | 54.143374 | 7.897031 | 2.0 | 17.142 | 2 | 42.533 | 17.309 | 32.689 | 2 |
| 2025-09-25T10:45:00 | 54.143557 | 7.896615 | 2.0 | 17.138 | 2 | 42.527 | 17.303 | 32.689 | 2 |
| 2025-09-25T10:46:00 | 54.143740 | 7.896296 | 2.0 | 17.139 | 2 | 42.524 | 17.300 | 32.688 | 2 |
| 2025-09-25T10:47:00 | 54.144011 | 7.896200 | 2.0 | 17.139 | 2 | 42.524 | 17.299 | 32.689 | 2 |
| 2025-09-25T10:48:00 | 54.144252 | 7.896542 | 2.0 | 17.136 | 2 | 42.523 | 17.299 | 32.688 | 2 |
| 2025-09-25T10:49:00 | 54.144420 | 7.897160 | 2.0 | 17.139 | 2 | 42.523 | 17.298 | 32.689 | 2 |
| 2025-09-25T10:50:00 | 54.144391 | 7.897970 | 2.0 | 17.140 | 2 | 42.525 | 17.301 | 32.688 | 2 |
| 2025-09-25T11:43:00 | 54.149471 | 7.887416 | 2.0 | 17.125 | 2 | 42.554 | 17.321 | 32.697 | 2 |
| 2025-09-25T11:44:00 | 54.150692 | 7.883367 | 2.0 | 17.126 | 2 | 42.534 | 17.305 | 32.693 | 2 |
| 2025-09-25T11:45:00 | 54.151951 | 7.879194 | 2.0 | 17.131 | 2 | 42.533 | 17.305 | 32.692 | 2 |
| 2025-09-25T11:46:00 | 54.153269 | 7.874982 | 2.0 | 17.134 | 2 | 42.536 | 17.307 | 32.693 | 2 |
| 2025-09-25T11:47:00 | 54.154588 | 7.870793 | 2.0 | 17.136 | 2 | 42.531 | 17.308 | 32.688 | 2 |
| 2025-09-25T11:48:00 | 54.155871 | 7.866580 | 2.0 | 17.139 | 2 | 42.521 | 17.310 | 32.678 | 2 |
| 2025-09-25T11:49:00 | 54.157180 | 7.862337 | 2.0 | 17.138 | 2 | 42.512 | 17.310 | 32.670 | 2 |
| 2025-09-25T11:50:00 | 54.158527 | 7.858112 | 2.0 | 17.142 | 2 | 42.502 | 17.311 | 32.661 | 2 |
| 2025-09-25T11:51:00 | 54.159831 | 7.853788 | 2.0 | 17.139 | 2 | 42.501 | 17.314 | 32.657 | 2 |
| 2025-09-25T11:52:00 | 54.161160 | 7.849464 | 2.0 | 17.121 | 2 | 42.488 | 17.305 | 32.653 | 2 |
| 2025-09-25T11:53:00 | 54.162532 | 7.845141 | 2.0 | 17.108 | 2 | 42.470 | 17.291 | 32.649 | 2 |
| 2025-09-25T11:54:00 | 54.163892 | 7.840765 | 2.0 | 17.091 | 2 | 42.457 | 17.277 | 32.649 | 2 |
| 2025-09-25T11:55:00 | 54.165264 | 7.836373 | 2.0 | 17.077 | 2 | 42.445 | 17.260 | 32.653 | 2 |
| 2025-09-25T11:56:00 | 54.166639 | 7.831996 | 2.0 | 17.073 | 2 | 42.439 | 17.249 | 32.657 | 2 |
| 2025-09-25T11:57:00 | 54.168002 | 7.827608 | 2.0 | 17.072 | 2 | 42.436 | 17.244 | 32.658 | 2 |
| 2025-09-25T11:58:00 | 54.169382 | 7.823180 | 2.0 | 17.069 | 2 | 42.435 | 17.241 | 32.660 | 2 |
| 2025-09-25T11:59:00 | 54.170790 | 7.818785 | 2.0 | 17.072 | 2 | 42.436 | 17.240 | 32.661 | 2 |
| 2025-09-25T12:00:00 | 54.172333 | 7.814568 | 2.0 | 17.072 | 2 | 42.440 | 17.242 | 32.663 | 2 |
| 2025-09-25T12:01:00 | 54.174002 | 7.810477 | 2.0 | 17.074 | 2 | 42.441 | 17.243 | 32.663 | 2 |
| 2025-09-25T12:02:00 | 54.175681 | 7.806347 | 2.0 | 17.076 | 2 | 42.445 | 17.244 | 32.666 | 2 |
| 2025-09-25T12:03:00 | 54.177311 | 7.802147 | 2.0 | 17.093 | 2 | 42.458 | 17.248 | 32.674 | 2 |
| 2025-09-25T12:04:00 | 54.179427 | 7.798877 | 2.0 | 17.112 | 2 | 42.521 | 17.268 | 32.712 | 2 |
| 2025-09-25T12:05:00 | 54.182135 | 7.798492 | 2.0 | 17.078 | 2 | 42.536 | 17.272 | 32.721 | 2 |
| 2025-09-25T12:06:00 | 54.184821 | 7.799523 | 2.0 | 17.072 | 2 | 42.469 | 17.249 | 32.682 | 2 |
| 2025-09-25T12:07:00 | 54.187536 | 7.800507 | 2.0 | 17.071 | 2 | 42.453 | 17.241 | 32.675 | 2 |
| 2025-09-25T12:08:00 | 54.190255 | 7.801513 | 2.0 | 17.070 | 2 | 42.458 | 17.241 | 32.679 | 2 |
| 2025-09-25T12:09:00 | 54.192973 | 7.802462 | 2.0 | 17.061 | 2 | 42.462 | 17.238 | 32.685 | 2 |
| 2025-09-25T12:10:00 | 54.195693 | 7.803427 | 2.0 | 17.046 | 2 | 42.448 | 17.227 | 32.682 | 2 |
| 2025-09-25T12:11:00 | 54.198407 | 7.804351 | 2.0 | 17.044 | 2 | 42.418 | 17.215 | 32.666 | 2 |
| 2025-09-25T12:12:00 | 54.201113 | 7.805363 | 2.0 | 17.049 | 2 | 42.405 | 17.213 | 32.656 | 2 |
| 2025-09-25T12:13:00 | 54.203834 | 7.806305 | 2.0 | 17.051 | 2 | 42.402 | 17.217 | 32.651 | 2 |
| 2025-09-25T12:14:00 | 54.206563 | 7.807298 | 2.0 | 17.055 | 2 | 42.400 | 17.220 | 32.647 | 2 |
| 2025-09-25T12:15:00 | 54.209283 | 7.808293 | 2.0 | 17.059 | 2 | 42.400 | 17.223 | 32.644 | 2 |
| 2025-09-25T12:16:00 | 54.211971 | 7.809309 | 2.0 | 17.062 | 2 | 42.399 | 17.227 | 32.640 | 2 |
| 2025-09-25T12:17:00 | 54.214707 | 7.810245 | 2.0 | 17.065 | 2 | 42.397 | 17.230 | 32.636 | 2 |
| 2025-09-25T12:18:00 | 54.217438 | 7.811187 | 2.0 | 17.056 | 2 | 42.398 | 17.231 | 32.636 | 2 |
| 2025-09-25T12:19:00 | 54.220143 | 7.812281 | 2.0 | 17.028 | 2 | 42.399 | 17.217 | 32.648 | 2 |
| 2025-09-25T12:20:00 | 54.222808 | 7.813765 | 2.0 | 17.029 | 2 | 42.392 | 17.198 | 32.657 | 2 |
| 2025-09-25T12:21:00 | 54.225324 | 7.815712 | 2.0 | 17.038 | 2 | 42.388 | 17.199 | 32.653 | 2 |
| 2025-09-25T12:22:00 | 54.227841 | 7.817684 | 2.0 | 17.043 | 2 | 42.390 | 17.207 | 32.648 | 2 |
| 2025-09-25T12:23:00 | 54.230350 | 7.819619 | 2.0 | 17.047 | 2 | 42.390 | 17.211 | 32.645 | 2 |
| 2025-09-25T12:24:00 | 54.232839 | 7.821476 | 2.0 | 17.024 | 2 | 42.387 | 17.211 | 32.643 | 2 |
| 2025-09-25T12:25:00 | 54.235354 | 7.823423 | 2.0 | 17.036 | 2 | 42.380 | 17.189 | 32.654 | 2 |
| 2025-09-25T12:26:00 | 54.237832 | 7.825241 | 2.0 | 17.045 | 2 | 42.378 | 17.203 | 32.641 | 2 |
| 2025-09-25T12:27:00 | 54.240137 | 7.827504 | 2.0 | 17.042 | 2 | 42.374 | 17.211 | 32.631 | 2 |
| 2025-09-25T12:28:00 | 54.242119 | 7.830620 | 2.0 | 17.034 | 2 | 42.361 | 17.208 | 32.623 | 2 |
| 2025-09-25T12:29:00 | 54.242841 | 7.835021 | 2.0 | 17.037 | 2 | 42.351 | 17.203 | 32.618 | 2 |
| 2025-09-25T12:30:00 | 54.242342 | 7.839507 | 2.0 | 17.044 | 2 | 42.354 | 17.205 | 32.619 | 2 |
| 2025-09-25T12:31:00 | 54.241655 | 7.843996 | 2.0 | 17.044 | 2 | 42.362 | 17.212 | 32.620 | 2 |
| 2025-09-25T12:32:00 | 54.240940 | 7.848460 | 2.0 | 17.071 | 2 | 42.363 | 17.213 | 32.620 | 2 |
| 2025-09-25T12:33:00 | 54.240292 | 7.852829 | 2.0 | 17.083 | 2 | 42.394 | 17.242 | 32.624 | 2 |
| 2025-09-25T12:34:00 | 54.239916 | 7.857234 | 2.0 | 17.082 | 2 | 42.398 | 17.247 | 32.623 | 2 |
| 2025-09-25T12:35:00 | 54.239661 | 7.861705 | 2.0 | 17.064 | 2 | 42.390 | 17.246 | 32.617 | 2 |
| 2025-09-25T12:36:00 | 54.239062 | 7.866120 | 2.0 | 17.037 | 2 | 42.379 | 17.225 | 32.624 | 2 |
| 2025-09-25T12:37:00 | 54.238205 | 7.870402 | 2.0 | 17.049 | 2 | 42.416 | 17.208 | 32.670 | 2 |
| 2025-09-25T12:38:00 | 54.237380 | 7.874505 | 2.0 | 17.047 | 2 | 42.458 | 17.216 | 32.700 | 2 |
| 2025-09-25T12:39:00 | 54.236616 | 7.878568 | 2.0 | 16.966 | 2 | 42.455 | 17.207 | 32.704 | 2 |
| 2025-09-25T12:40:00 | 54.235833 | 7.882603 | 2.0 | 16.821 | 2 | 42.365 | 17.106 | 32.709 | 2 |
| 2025-09-25T12:41:00 | 54.235174 | 7.886657 | 2.0 | 16.882 | 2 | 42.265 | 17.016 | 32.695 | 2 |
| 2025-09-25T12:42:00 | 54.234707 | 7.890624 | 2.0 | 16.863 | 2 | 42.276 | 17.044 | 32.682 | 2 |
| 2025-09-25T12:43:00 | 54.234487 | 7.894700 | 2.0 | 16.875 | 2 | 42.267 | 17.033 | 32.683 | 2 |
| 2025-09-25T12:44:00 | 54.234155 | 7.898805 | 2.0 | 16.887 | 2 | 42.271 | 17.045 | 32.677 | 2 |
| 2025-09-25T12:45:00 | 54.233549 | 7.902802 | 2.0 | 16.856 | 2 | 42.283 | 17.052 | 32.682 | 2 |
| 2025-09-25T12:46:00 | 54.232684 | 7.906773 | 2.0 | 16.807 | 2 | 42.262 | 17.013 | 32.695 | 2 |
| 2025-09-25T12:47:00 | 54.231685 | 7.910654 | 2.0 | 16.874 | 2 | 42.240 | 16.986 | 32.698 | 2 |
| 2025-09-25T12:48:00 | 54.230706 | 7.914553 | 2.0 | 16.972 | 2 | 42.306 | 17.060 | 32.695 | 2 |
| 2025-09-25T12:49:00 | 54.229782 | 7.918440 | 2.0 | 17.001 | 2 | 42.383 | 17.138 | 32.698 | 2 |
| 2025-09-25T12:50:00 | 54.228853 | 7.922327 | 2.0 | 17.008 | 2 | 42.397 | 17.163 | 32.690 | 2 |
| 2025-09-25T12:51:00 | 54.227941 | 7.926194 | 2.0 | 17.025 | 2 | 42.386 | 17.176 | 32.670 | 2 |
| 2025-09-25T12:52:00 | 54.226808 | 7.929901 | 2.0 | 17.031 | 2 | 42.392 | 17.190 | 32.664 | 2 |
| 2025-09-25T12:53:00 | 54.225423 | 7.933473 | 2.0 | 17.039 | 2 | 42.403 | 17.196 | 32.669 | 2 |
| 2025-09-25T12:54:00 | 54.223556 | 7.936286 | 2.0 | 17.053 | 2 | 42.423 | 17.206 | 32.678 | 2 |
| 2025-09-25T12:55:00 | 54.220842 | 7.936524 | 2.0 | 17.104 | 2 | 42.454 | 17.227 | 32.687 | 2 |
| 2025-09-25T12:56:00 | 54.218055 | 7.936496 | 2.0 | 17.126 | 2 | 42.506 | 17.275 | 32.693 | 2 |
| 2025-09-25T12:57:00 | 54.215292 | 7.936944 | 2.0 | 17.175 | 2 | 42.530 | 17.299 | 32.694 | 2 |
| 2025-09-25T12:58:00 | 54.212570 | 7.937444 | 2.0 | 17.195 | 2 | 42.551 | 17.340 | 32.679 | 2 |
| 2025-09-25T12:59:00 | 54.209826 | 7.937809 | 2.0 | 17.194 | 2 | 42.559 | 17.357 | 32.672 | 2 |
| 2025-09-25T13:00:00 | 54.207109 | 7.938107 | 2.0 | 17.191 | 2 | 42.562 | 17.356 | 32.676 | 2 |
| 2025-09-25T13:01:00 | 54.204420 | 7.938571 | 2.0 | 17.198 | 2 | 42.566 | 17.358 | 32.678 | 2 |
| 2025-09-25T13:02:00 | 54.201696 | 7.938989 | 2.0 | 17.225 | 2 | 42.574 | 17.362 | 32.681 | 2 |
| 2025-09-25T13:03:00 | 54.199045 | 7.939740 | 2.0 | 17.225 | 2 | 42.595 | 17.391 | 32.676 | 2 |
| 2025-09-25T13:04:00 | 54.196407 | 7.940650 | 2.0 | 17.089 | 2 | 42.585 | 17.373 | 32.682 | 2 |
| 2025-09-25T13:05:00 | 54.193761 | 7.941424 | 2.0 | 17.022 | 2 | 42.473 | 17.246 | 32.688 | 2 |
| 2025-09-25T13:06:00 | 54.191073 | 7.941696 | 2.0 | 17.034 | 2 | 42.427 | 17.197 | 32.688 | 2 |
| 2025-09-25T13:07:00 | 54.188343 | 7.940773 | 2.0 | 17.031 | 2 | 42.431 | 17.200 | 32.689 | 2 |
| 2025-09-25T13:08:00 | 54.185567 | 7.940000 | 2.0 | 17.015 | 2 | 42.425 | 17.193 | 32.690 | 2 |
| 2025-09-25T13:09:00 | 54.182773 | 7.939108 | 2.0 | 17.007 | 2 | 42.414 | 17.181 | 32.690 | 2 |
| 2025-09-25T13:10:00 | 54.179981 | 7.938431 | 2.0 | 17.004 | 2 | 42.408 | 17.174 | 32.691 | 2 |
| 2025-09-25T13:11:00 | 54.177207 | 7.937500 | 2.0 | 16.986 | 2 | 42.401 | 17.165 | 32.692 | 2 |
| 2025-09-25T13:12:00 | 54.174428 | 7.936681 | 2.0 | 16.975 | 2 | 42.391 | 17.153 | 32.693 | 2 |
| 2025-09-25T13:13:00 | 54.171638 | 7.935899 | 2.0 | 16.982 | 2 | 42.380 | 17.143 | 32.692 | 2 |
| 2025-09-25T13:14:00 | 54.168884 | 7.935348 | 2.0 | 17.032 | 2 | 42.390 | 17.155 | 32.691 | 2 |
| 2025-09-25T13:15:00 | 54.166121 | 7.935083 | 2.0 | 17.057 | 2 | 42.432 | 17.203 | 32.688 | 2 |
| 2025-09-25T13:16:00 | 54.163372 | 7.934762 | 2.0 | 16.979 | 2 | 42.435 | 17.200 | 32.693 | 2 |
| 2025-09-25T13:17:00 | 54.160619 | 7.934531 | 2.0 | 17.035 | 2 | 42.389 | 17.155 | 32.690 | 2 |
| 2025-09-25T13:18:00 | 54.157867 | 7.934262 | 2.0 | 17.076 | 2 | 42.435 | 17.209 | 32.686 | 2 |
| 2025-09-25T13:19:00 | 54.155552 | 7.934280 | 2.0 | 17.105 | 2 | 42.473 | 17.244 | 32.690 | 2 |
| 2025-09-25T13:20:00 | 54.154092 | 7.934698 | 2.0 | 17.120 | 2 | 42.498 | 17.269 | 32.691 | 2 |
| 2025-09-25T13:21:00 | 54.153526 | 7.935406 | 2.0 | 17.121 | 2 | 42.513 | 17.281 | 32.694 | 2 |
| 2025-09-25T13:22:00 | 54.153365 | 7.935655 | 2.0 | 17.123 | 2 | 42.516 | 17.282 | 32.696 | 2 |
| 2025-09-25T13:23:00 | 54.153213 | 7.935629 | 2.0 | 17.131 | 2 | 42.520 | 17.286 | 32.696 | 2 |
| 2025-09-25T13:24:00 | 54.153009 | 7.935779 | 2.0 | 17.131 | 2 | 42.525 | 17.292 | 32.696 | 2 |
| 2025-09-25T13:25:00 | 54.152904 | 7.935943 | 2.0 | 17.134 | 2 | 42.527 | 17.294 | 32.696 | 2 |
| 2025-09-25T13:26:00 | 54.152891 | 7.935801 | 2.0 | 17.138 | 2 | 42.532 | 17.297 | 32.698 | 2 |
| 2025-09-25T13:27:00 | 54.152961 | 7.935781 | 2.0 | 17.138 | 2 | 42.535 | 17.300 | 32.698 | 2 |
| 2025-09-25T13:28:00 | 54.153005 | 7.935782 | 2.0 | 17.137 | 2 | 42.535 | 17.301 | 32.697 | 2 |
| 2025-09-25T13:29:00 | 54.152931 | 7.935538 | 2.0 | 17.135 | 2 | 42.534 | 17.299 | 32.698 | 2 |
| 2025-09-25T13:30:00 | 54.152770 | 7.935311 | 2.0 | 17.134 | 2 | 42.531 | 17.295 | 32.698 | 2 |
| 2025-09-25T13:31:00 | 54.152719 | 7.935389 | 2.0 | 17.134 | 2 | 42.530 | 17.294 | 32.698 | 2 |
| 2025-09-25T13:32:00 | 54.152221 | 7.936692 | 2.0 | 17.145 | 2 | 42.533 | 17.299 | 32.697 | 2 |
| 2025-09-25T13:33:00 | 54.150154 | 7.937033 | 2.0 | 17.155 | 2 | 42.544 | 17.310 | 32.698 | 2 |
| 2025-09-25T13:34:00 | 54.147604 | 7.937539 | 2.0 | 17.165 | 2 | 42.556 | 17.320 | 32.700 | 2 |
| 2025-09-25T13:35:00 | 54.144904 | 7.938013 | 2.0 | 17.181 | 2 | 42.573 | 17.333 | 32.704 | 2 |
| 2025-09-25T13:36:00 | 54.142213 | 7.938419 | 2.0 | 17.196 | 2 | 42.593 | 17.347 | 32.710 | 2 |
| 2025-09-25T13:37:00 | 54.139531 | 7.938969 | 2.0 | 17.216 | 2 | 42.615 | 17.363 | 32.716 | 2 |
| 2025-09-25T13:38:00 | 54.136791 | 7.939393 | 2.0 | 17.235 | 2 | 42.640 | 17.382 | 32.722 | 2 |
| 2025-09-25T13:39:00 | 54.134041 | 7.939915 | 2.0 | 17.291 | 2 | 42.670 | 17.406 | 32.728 | 2 |
| 2025-09-25T13:40:00 | 54.131329 | 7.940404 | 2.0 | 17.396 | 2 | 42.753 | 17.473 | 32.745 | 2 |
| 2025-09-25T13:41:00 | 54.128606 | 7.940833 | 2.0 | 17.417 | 2 | 42.847 | 17.553 | 32.761 | 2 |
| 2025-09-25T13:42:00 | 54.125871 | 7.941229 | 2.0 | 17.426 | 2 | 42.869 | 17.578 | 32.759 | 2 |
| 2025-09-25T13:43:00 | 54.123147 | 7.941747 | 2.0 | 17.432 | 2 | 42.877 | 17.588 | 32.758 | 2 |
| 2025-09-25T13:44:00 | 54.120429 | 7.942251 | 2.0 | 17.434 | 2 | 42.874 | 17.593 | 32.752 | 2 |
| 2025-09-25T13:45:00 | 54.117681 | 7.942755 | 2.0 | 17.437 | 2 | 42.875 | 17.596 | 32.750 | 2 |
| 2025-09-25T13:46:00 | 54.114942 | 7.943189 | 2.0 | 17.442 | 2 | 42.881 | 17.600 | 32.752 | 2 |
| 2025-09-25T13:47:00 | 54.112605 | 7.943771 | 2.0 | 17.440 | 2 | 42.886 | 17.604 | 32.753 | 2 |
| 2025-09-25T13:48:00 | 54.110798 | 7.944365 | 2.0 | 17.436 | 2 | 42.865 | 17.601 | 32.737 | 2 |
| 2025-09-25T13:49:00 | 54.108633 | 7.944479 | 2.0 | 17.433 | 2 | 42.848 | 17.597 | 32.726 | 2 |
| 2025-09-25T13:50:00 | 54.105682 | 7.944668 | 2.0 | 17.428 | 2 | 42.828 | 17.596 | 32.710 | 2 |
| 2025-09-25T13:51:00 | 54.102528 | 7.945222 | 2.0 | 17.435 | 2 | 42.810 | 17.594 | 32.696 | 2 |
| 2025-09-25T13:52:00 | 54.099333 | 7.945825 | 2.0 | 17.436 | 2 | 42.820 | 17.601 | 32.699 | 2 |
| 2025-09-25T13:53:00 | 54.096139 | 7.946476 | 2.0 | 17.435 | 2 | 42.818 | 17.602 | 32.696 | 2 |
| 2025-09-25T13:54:00 | 54.092953 | 7.947184 | 2.0 | 17.426 | 2 | 42.812 | 17.599 | 32.694 | 2 |
| 2025-09-25T13:55:00 | 54.089758 | 7.947841 | 2.0 | 17.422 | 2 | 42.786 | 17.590 | 32.679 | 2 |
| 2025-09-25T13:56:00 | 54.086559 | 7.948491 | 2.0 | 17.415 | 2 | 42.775 | 17.588 | 32.671 | 2 |
| 2025-09-25T13:57:00 | 54.083382 | 7.949179 | 2.0 | 17.402 | 2 | 42.745 | 17.578 | 32.654 | 2 |
| 2025-09-25T13:58:00 | 54.080208 | 7.949845 | 2.0 | 17.396 | 2 | 42.721 | 17.567 | 32.642 | 2 |
| 2025-09-25T13:59:00 | 54.076985 | 7.950518 | 2.0 | 17.392 | 2 | 42.703 | 17.561 | 32.631 | 2 |
| 2025-09-25T14:00:00 | 54.073766 | 7.951159 | 2.0 | 17.389 | 2 | 42.689 | 17.557 | 32.623 | 2 |
| 2025-09-25T14:01:00 | 54.070544 | 7.951801 | 2.0 | 17.386 | 2 | 42.679 | 17.555 | 32.616 | 2 |
| 2025-09-25T14:02:00 | 54.067361 | 7.952527 | 2.0 | 17.380 | 2 | 42.664 | 17.551 | 32.606 | 2 |
| 2025-09-25T14:03:00 | 54.064125 | 7.953135 | 2.0 | 17.374 | 2 | 42.647 | 17.545 | 32.596 | 2 |
| 2025-09-25T14:04:00 | 54.060913 | 7.953800 | 2.0 | 17.372 | 2 | 42.629 | 17.540 | 32.585 | 2 |
| 2025-09-25T14:05:00 | 54.057710 | 7.954458 | 2.0 | 17.372 | 2 | 42.620 | 17.537 | 32.580 | 2 |
| 2025-09-25T14:06:00 | 54.054496 | 7.955096 | 2.0 | 17.362 | 2 | 42.612 | 17.535 | 32.575 | 2 |
| 2025-09-25T14:07:00 | 54.051296 | 7.955777 | 2.0 | 17.355 | 2 | 42.588 | 17.526 | 32.561 | 2 |
| 2025-09-25T14:08:00 | 54.048123 | 7.956468 | 2.0 | 17.351 | 2 | 42.569 | 17.520 | 32.550 | 2 |
| 2025-09-25T14:09:00 | 54.044920 | 7.957152 | 2.0 | 17.349 | 2 | 42.557 | 17.517 | 32.542 | 2 |
| 2025-09-25T14:10:00 | 54.041720 | 7.957818 | 2.0 | 17.343 | 2 | 42.545 | 17.514 | 32.534 | 2 |
| 2025-09-25T14:11:00 | 54.038495 | 7.958433 | 2.0 | 17.338 | 2 | 42.533 | 17.509 | 32.528 | 2 |
| 2025-09-25T14:12:00 | 54.035268 | 7.959150 | 2.0 | 17.333 | 2 | 42.520 | 17.504 | 32.521 | 2 |
| 2025-09-25T14:13:00 | 54.032055 | 7.959840 | 2.0 | 17.329 | 2 | 42.505 | 17.498 | 32.513 | 2 |
| 2025-09-25T14:14:00 | 54.028811 | 7.960406 | 2.0 | 17.325 | 2 | 42.494 | 17.494 | 32.507 | 2 |
| 2025-09-25T14:15:00 | 54.025590 | 7.961120 | 2.0 | 17.323 | 2 | 42.486 | 17.490 | 32.503 | 2 |
| 2025-09-25T14:16:00 | 54.022380 | 7.961848 | 2.0 | 17.323 | 2 | 42.481 | 17.489 | 32.500 | 2 |
| 2025-09-25T14:17:00 | 54.019127 | 7.962473 | 2.0 | 17.318 | 2 | 42.476 | 17.487 | 32.497 | 2 |
| 2025-09-25T14:18:00 | 54.015922 | 7.963093 | 2.0 | 17.313 | 2 | 42.467 | 17.483 | 32.492 | 2 |
| 2025-09-25T14:19:00 | 54.012692 | 7.963805 | 2.0 | 17.310 | 2 | 42.455 | 17.479 | 32.485 | 2 |
| 2025-09-25T14:20:00 | 54.009475 | 7.964390 | 2.0 | 17.301 | 2 | 42.442 | 17.474 | 32.478 | 2 |
| 2025-09-25T14:21:00 | 54.006239 | 7.965079 | 2.0 | 17.296 | 2 | 42.428 | 17.467 | 32.472 | 2 |
| 2025-09-25T14:22:00 | 54.003014 | 7.965779 | 2.0 | 17.291 | 2 | 42.416 | 17.462 | 32.466 | 2 |
| 2025-09-25T14:23:00 | 53.999800 | 7.966421 | 2.0 | 17.286 | 2 | 42.406 | 17.456 | 32.462 | 2 |
| 2025-09-25T14:24:00 | 53.996562 | 7.967090 | 2.0 | 17.281 | 2 | 42.396 | 17.451 | 32.457 | 2 |
| 2025-09-25T14:25:00 | 53.993301 | 7.967761 | 2.0 | 17.278 | 2 | 42.387 | 17.447 | 32.453 | 2 |
| 2025-09-25T14:26:00 | 53.990065 | 7.968467 | 2.0 | 17.273 | 2 | 42.378 | 17.443 | 32.448 | 2 |
| 2025-09-25T14:27:00 | 53.986827 | 7.969140 | 2.0 | 17.268 | 2 | 42.367 | 17.439 | 32.442 | 2 |
| 2025-09-25T14:28:00 | 53.983596 | 7.969765 | 2.0 | 17.264 | 2 | 42.355 | 17.434 | 32.436 | 2 |
| 2025-09-25T14:29:00 | 53.980398 | 7.970535 | 2.0 | 17.260 | 2 | 42.343 | 17.429 | 32.430 | 2 |
| 2025-09-25T14:30:00 | 53.977182 | 7.971298 | 2.0 | 17.258 | 2 | 42.334 | 17.426 | 32.424 | 2 |
| 2025-09-25T14:31:00 | 53.973960 | 7.972080 | 2.0 | 17.256 | 2 | 42.327 | 17.424 | 32.420 | 2 |
| 2025-09-25T14:32:00 | 53.970739 | 7.972874 | 2.0 | 17.253 | 2 | 42.320 | 17.422 | 32.416 | 2 |
| 2025-09-25T14:33:00 | 53.967520 | 7.973613 | 2.0 | 17.248 | 2 | 42.309 | 17.418 | 32.409 | 2 |
| 2025-09-25T14:34:00 | 53.964282 | 7.974410 | 2.0 | 17.241 | 2 | 42.296 | 17.414 | 32.401 | 2 |
| 2025-09-25T14:35:00 | 53.961080 | 7.975154 | 2.0 | 17.233 | 2 | 42.279 | 17.407 | 32.392 | 2 |
| 2025-09-25T14:36:00 | 53.957857 | 7.975860 | 2.0 | 17.221 | 2 | 42.261 | 17.398 | 32.384 | 2 |
| 2025-09-25T14:37:00 | 53.954676 | 7.976660 | 2.0 | 17.211 | 2 | 42.239 | 17.387 | 32.374 | 2 |
| 2025-09-25T14:38:00 | 53.951483 | 7.977427 | 2.0 | 17.204 | 2 | 42.221 | 17.378 | 32.366 | 2 |
| 2025-09-25T14:39:00 | 53.948302 | 7.978115 | 2.0 | 17.194 | 2 | 42.203 | 17.370 | 32.357 | 2 |
| 2025-09-25T14:40:00 | 53.945114 | 7.978893 | 2.0 | 17.185 | 2 | 42.182 | 17.360 | 32.347 | 2 |
| 2025-09-25T14:41:00 | 53.941940 | 7.979591 | 2.0 | 17.176 | 2 | 42.162 | 17.351 | 32.337 | 2 |
| 2025-09-25T14:42:00 | 53.938801 | 7.980370 | 2.0 | 17.169 | 2 | 42.142 | 17.342 | 32.327 | 2 |
| 2025-09-25T14:43:00 | 53.935686 | 7.981127 | 2.0 | 17.166 | 2 | 42.126 | 17.335 | 32.319 | 2 |
| 2025-09-25T14:44:00 | 53.932540 | 7.981809 | 2.0 | 17.168 | 2 | 42.115 | 17.332 | 32.312 | 2 |
| 2025-09-25T14:45:00 | 53.929387 | 7.982496 | 2.0 | 17.173 | 2 | 42.113 | 17.335 | 32.308 | 2 |
